Indian Springs, Nevada Weather observations

Data are for observation ending at time listed.
 Day   Time    Ave.   Ave.  Ave.  Vector   Max.   Stn.    Total    Solar   Ave.  
  of    of     Air    Rel.  Wind   Wind    Wind   Baro.  Precip.   Rad.    Soil  
Year   Day     Temp.  Hum.  Speed  Dir.    Gust   Pres.                    Temp. 
2023   (PST)    F      %     mph   deg.    mph     mb.     in.     W/m2     F   
------------------------------------------------------------------------------
  31    4:40   24.1    59    0.9   111      2.2   906.2    0.00       0    37.9
  31    4:50   23.7    60    0.3   158      1.1   906.2    0.00       0    37.8
  31    5:00   23.8    60    0.0     0      0.0   906.2    0.00       0    37.7
  31    5:10   24.1    56    0.0     0      0.0   906.3    0.00       0    37.6
  31    5:20   24.6    53    0.4   233      2.0   906.5    0.00       0    37.5
  31    5:30   24.1    57    0.4   226      1.2   906.5    0.00       0    37.4
  31    5:40   23.8    57    0.0   121      0.7   906.5    0.00       0    37.4
  31    5:50   23.1    59    0.1   174      0.9   906.5    0.00       0    37.3
  31    6:00   23.4    58    0.1   219      0.8   906.6    0.00       0    37.2
  31    6:10   23.5    56    0.1    28      0.7   906.7    0.00       0    37.1
  31    6:20   23.0    58    0.3   158      1.2   906.8    0.00       0    36.9
  31    6:30   23.0    56    0.0     0      0.0   906.8    0.00       0    36.9
  31    6:40   23.8    52    0.1    25      0.9   906.9    0.00       1    36.8
  31    6:50   23.4    54    0.2   217      0.9   907.0    0.00       6    36.7
  31    7:00   23.2    55    0.4   227      1.2   907.1    0.00      17    36.6
  31    7:10   23.9    53    1.1   231      3.4   907.2    0.00      48    36.5
  31    7:20   24.9    51    1.3   244      2.9   907.4    0.00      68    36.4
  31    7:30   25.6    52    1.4   237      3.0   907.8    0.00     117    36.3
  31    7:40   26.9    48    1.5   231      3.0   908.2    0.00     166    36.3
  31    7:50   28.0    46    0.8   234      3.3   908.6    0.00     202    36.2
  31    8:00   30.2    35    0.0   270      0.7   909.0    0.00     238    36.1
  31    8:10   31.9    33    0.4   240      2.7   909.4    0.00     276    36.1
  31    8:20   32.4    31    0.1   228      3.0   909.8    0.00     310    36.0
  31    8:30   33.3    25    0.0   222      0.9   910.1    0.00     344    36.0
  31    8:40   34.0    23    1.5   227      3.1   910.3    0.00     375    36.0
  31    8:50   34.3    21    2.3   231      3.8   910.6    0.00     407    36.0
  31    9:00   34.4    21    2.6   238      3.7   910.8    0.00     440    36.0
  31    9:10   35.3    20    1.6   226      3.5   911.0    0.00     467    36.0
  31    9:20   37.1    18    0.8    40      4.3   911.1    0.00     503    36.1
  31    9:30   37.4    19    0.1    73      3.5   911.3    0.00     526    36.1
  31    9:40   37.3    18    0.2   108      3.8   911.5    0.00     429    36.1
  31    9:50   37.0    18    0.5    53      6.1   911.6    0.00     295    36.1
  31   10:00   36.4    19    1.8    47      9.3   911.6    0.00     176    36.2
  31   10:10   36.7    20    0.0     0      0.0   911.5    0.00     338    36.4
  31   10:20   37.5    20    0.0    62      1.0   911.4    0.00     440    36.6
  31   10:30   37.2    20    0.7    64      7.3   911.3    0.00     153    36.9
  31   10:40   37.3    19    0.8    62      4.8   911.0    0.00     104    37.2
  31   10:50   37.7    18    0.0    58      0.1   910.9    0.00     166    37.5
  31   11:00   38.2    18    0.0     0      0.0   910.7    0.00     286    37.8
  31   11:10   38.5    18    0.0     0      0.0   910.6    0.00     128    38.1
  31   11:20   39.6    17    0.0     0      0.0   910.4    0.00     210    38.3
  31   11:30   39.6    17    0.0     0      0.0   910.2    0.00     200    38.6
  31   11:40   40.9    16    0.0     0      0.0   910.0    0.00     152    38.8
  31   11:50   41.4    16    0.0     0      0.0   909.9    0.00     312    38.9
  31   12:00   42.2    14    0.2    42      7.2   909.9    0.00     735    39.1
  31   12:10   43.2    13    2.5    50      6.6   909.8    0.00     737    39.4
  31   12:20   43.3    12    2.8    43      8.3   909.8    0.00     733    39.7
  31   12:30   43.2    12    2.0    38      7.7   909.9    0.00     723    40.2
  31   12:40   44.1    13    1.6     5      7.6   909.9    0.00     705    40.6
  31   12:50   44.9    13    2.1   334      6.1   909.9    0.00     699    41.0
  31   13:00   44.7    12    2.3     0      9.3   909.9    0.00     698    41.5
  31   13:10   45.2    12    3.2    24      9.6   909.9    0.00     662    42.0
  31   13:20   45.2    12    3.5    30     11.3   909.8    0.00     661    42.5
  31   13:30   44.8    12    5.6    28     14.2   909.7    0.00     254    42.9
  31   13:40   45.3    12    6.4    19     12.1   909.6    0.00     598    43.4
  31   13:50   45.4    12    5.1    41     10.7   909.3    0.00     612    43.7
  31   14:00   45.6    12    5.7    46     13.0   909.4    0.00     589    44.1
  31   14:10   45.6    13    6.7    49     14.8   909.4    0.00     506    44.4
  31   14:20   45.2    12    3.5    66     10.7   909.5    0.00     541    44.7
  31   14:30   45.8    13    4.1    56     14.5   909.6    0.00     514    45.0
  31   14:40   45.8    13    3.0    50      9.8   909.6    0.00     485    45.3
  31   14:50   45.6    13    4.2    48     12.6   909.6    0.00     454    45.6
  31   15:00   46.0    13    2.5    37      8.4   909.5    0.00     423    45.8
  31   15:10   46.1    13    3.2    31      9.3   909.4    0.00     391    46.0
  31   15:20   46.3    13    1.6    42      7.2   909.4    0.00     360    46.2
  31   15:30   45.8    13    3.2    69      7.0   909.4    0.00     328    46.4
  31   15:40   46.1    13    0.9    23      5.6   909.4    0.00     293    46.6
  31   15:50   45.8    13    1.9    70      6.7   909.2    0.00     255    46.7
  31   16:00   44.9    13    0.0    83      0.7   909.1    0.00     174    46.8
  31   16:10   44.0    13    0.4   156      3.5   908.8    0.00      31    46.9
  31   16:20   44.1    14    0.2   121      5.8   908.6    0.00      30    47.0
  31   16:30   44.2    14    1.7   161      5.9   908.6    0.00      37    47.0
  31   16:40   44.3    14    0.5   186      4.1   908.5    0.00      71    46.9
  31   16:50   44.3    14    0.0   186      0.5   908.5    0.00      43    46.8
  31   17:00   43.2    16    0.3   209      1.9   908.5    0.00      14    46.7
  31   17:10   41.9    18    0.0   197      0.1   908.4    0.00       7    46.6
  31   17:20   40.9    19    0.0     0      0.0   908.2    0.00       2    46.5
  31   17:30   40.0    20    0.0   140      1.8   908.1    0.00       0    46.3
  31   17:40   39.9    19    0.0    94      1.5   907.9    0.00       0    46.2
  31   17:50   39.2    21    0.2   167      3.1   907.9    0.00       0    46.0
  31   18:00   38.6    21    0.2    81      2.4   907.9    0.00       0    45.8
  31   18:10   38.8    20    0.1   128      2.8   907.9    0.00       0    45.5
  31   18:20   38.4    21    0.1   305      3.9   907.9    0.00       0    45.3
  31   18:30   38.1    23    0.0   290      0.1   908.0    0.00       0    45.1
  31   18:40   37.7    23    0.0   285      0.4   907.9    0.00       0    44.9
  31   18:50   37.5    23    0.1   292      1.8   907.9    0.00       0    44.7
  31   19:00   36.5    26    0.0     0      0.0   908.0    0.00       0    44.5
  31   19:10   35.1    29    0.2   173      1.5   908.1    0.00       0    44.3
  31   19:20   35.0    29    0.1   218      1.2   908.1    0.00       0    44.1
  31   19:30   33.4    34    0.4   121      2.1   908.1    0.00       0    43.9
  31   19:40   32.7    35    0.1    18      1.7   908.0    0.00       0    43.7
  31   19:50   32.1    36    0.7     8      2.2   908.0    0.00       0    43.5
  31   20:00   31.8    36    0.4    88      1.8   908.0    0.00       0    43.3
  31   20:10   31.6    36    0.1   218      1.2   908.1    0.00       0    43.1
  31   20:20   32.7    34    1.1   242      2.9   908.1    0.00       0    42.9
  31   20:30   32.3    34    1.0   208      2.7   908.1    0.00       0    42.8
  31   20:40   31.7    37    0.6    62      3.8   908.1    0.00       0    42.6
  31   20:50   31.3    36    0.4   111      3.6   908.2    0.00       0    42.4
  31   21:00   31.4    36    0.1   175      1.4   908.2    0.00       0    42.2
  31   21:10   31.4    36    0.2    75      2.7   908.2    0.00       0    42.0
  31   21:20   31.8    35    0.7   272      2.3   908.2    0.00       0    41.9
  31   21:30   31.3    37    0.5   308      3.2   908.3    0.00       0    41.7
  31   21:40   30.5    41    0.9   237      2.1   908.4    0.00       0    41.5
  31   21:50   29.3    44    0.2   166      1.6   908.3    0.00       0    41.3
  31   22:00   29.0    45    0.3   215      1.9   908.5    0.00       0    41.2
  31   22:10   29.4    44    0.9   205      2.8   908.5    0.00       0    41.0
  31   22:20   29.6    42    0.4   184      2.7   908.5    0.00       0    40.9
  31   22:30   30.6    39    1.0   304      2.9   908.6    0.00       0    40.7
  31   22:40   31.0    39    1.1   316      3.4   908.7    0.00       0    40.6
  31   22:50   30.7    40    0.2   202      1.2   908.7    0.00       0    40.4
  31   23:00   30.9    40    1.1   296      3.0   908.8    0.00       0    40.3
  31   23:10   30.1    40    1.3   249      3.9   908.8    0.00       0    40.2
  31   23:20   29.8    42    0.6   285      1.7   908.7    0.00       0    40.1
  31   23:30   29.6    42    0.6   328      1.9   908.6    0.00       0    40.0
  31   23:40   30.1    40    1.2   269      2.9   908.6    0.00       0    39.8
  31   23:50   30.1    39    0.8   272      2.4   908.6    0.00       0    39.7
  32    0:00   30.2    39    1.0   247      3.1   908.5    0.00       0    39.6
  32    0:10   29.2    41    0.5   232      1.8   908.5    0.00       0    39.5
  32    0:20   29.4    41    1.1   311      5.1   908.4    0.00       0    39.4
  32    0:30   29.0    43    0.6   302      1.9   908.4    0.00       0    39.3
  32    0:40   28.0    46    1.0   222      2.2   908.4    0.00       0    39.2
  32    0:50   27.7    47    1.4   223      3.5   908.3    0.00       0    39.1
  32    1:00   29.2    41    1.9   230      3.8   908.3    0.00       0    39.0
  32    1:10   30.4    38    0.7   242      2.7   908.4    0.00       0    38.9
  32    1:20   29.3    42    0.6   213      1.9   908.3    0.00       0    38.8
  32    1:30   27.9    46    0.6   224      1.8   908.2    0.00       0    38.7
  32    1:40   27.0    49    0.0   279      0.7   908.3    0.00       0    38.6
  32    1:50   27.7    47    0.5   239      1.8   908.2    0.00       0    38.5
  32    2:00   27.5    48    0.5   212      2.0   908.1    0.00       0    38.4
  32    2:10   28.0    46    1.3   240      2.9   908.1    0.00       0    38.3
  32    2:20   27.9    47    0.4   246      1.8   908.1    0.00       0    38.2
  32    2:30   26.7    49    0.0    15      0.8   908.1    0.00       0    38.1
  32    2:40   25.5    52    0.5   103      1.5   908.0    0.00       0    38.0
  32    2:50   24.8    55    0.1   148      0.9   908.0    0.00       0    37.9
  32    3:00   25.1    54    0.0   158      0.8   907.8    0.00       0    37.8
  32    3:10   25.1    55    0.2    67      1.0   907.7    0.00       0    37.7
  32    3:20   25.5    54    0.0     0      0.0   907.6    0.00       0    37.6
  32    3:30   25.5    53    0.3   217      1.5   907.6    0.00       0    37.5
  32    3:40   25.6    53    0.1   147      0.7   907.6    0.00       0    37.5
  32    3:50   25.2    54    0.2   219      1.8   907.6    0.00       0    37.4
  32    4:00   25.7    54    0.5   239      1.8   907.6    0.00       0    37.3
  32    4:10   25.5    54    1.2   236      2.6   907.6    0.00       0    37.2
  32    4:20   25.9    52    0.8   271      2.9   907.6    0.00       0    37.1
  32    4:30   25.3    54    0.0     0      0.0   907.7    0.00       0    37.0

Return to Indian Springs, Nevada graphs page.


Western Regional Climate Center,wrcc@dri.edu